Athens Eleftherios, Greece

12:37 AM EEST on October 22, 2014 (GMT +0300)
Artemida Attika | Change Station
CLOSE
Current Station
Personal Weather Station
Location: Artemis, Attika
Elevation: 112 ft
Nearby Weather Stations

Elev 112 ft 37.94 °N, 24.00 °E | Updated 5 seconds ago

Clear
Clear
59.0 °F
Feels Like 59.0 °F
N
1.6
Wind Variable Wind from SW
Gusts 2.2 mph

Today
High -- | Low -- °F
--% Chance of Precip.
Yesterday
High -- | Low -- °F
Precip. -- in
7:39 AM 6:37 PM
Waning Crescent, 4% visible
Pressure 29.89 in
Visibility -9999.0 miles
Clouds
Dew Point 51 °F
Humidity 74%
Rainfall 0.00 in
Snow Depth Not available.
UV Not available.
Pollen Not available.
Air Quality Not available.
Flu Activity Not available.
METAR LGAV 212120Z 17002KT CAVOK 15/09 Q1012 NOSIG

More Conditions Fewer Conditions

Pressure 29.89 in
Visibility -9999.0 miles
Clouds
Dew Point 51 °F
Humidity 74%
Rainfall 0.00 in
Snow Depth Not available.
UV Not available.
Pollen Not available.
Air Quality Not available.
Flu Activity Not available.
METAR LGAV 212120Z 17002KT CAVOK 15/09 Q1012 NOSIG

More Conditions Fewer Conditions

10-Day Weather Forecast

Almanac

Astronomy

Oct. 22, 2014 Rise Set
Actual Time 7:39 AM EEST 6:37 PM EEST
Civil Twilight 7:12 AM EEST 7:04 PM EEST
Nautical Twilight 6:41 AM EEST 7:35 PM EEST
Astronomical Twilight 6:11 AM EEST 8:05 PM EEST
Moon 6:04 AM EEST (10/22) 5:52 PM EEST (10/22)
Length of Visible Light 11h 51m
Length of Day
10h 58m
Tomorrow will be 2m 17s shorter.
Waning Crescent, 4% of the Moon is Illuminated
Oct 21
Waning Crescent
Oct 23
New
Oct 30
First Quarter
Nov 6
Full
Nov 14
Last Quarter

Yesterday's Extremes

Country Highs Country Lows

Community

WunderPhotos

Upload Photos

1,763,779 photos uploaded!

Nearby

Snow Depth

Not available.

Earthquake Activity

City Distance Mag. Time & Date
No recent earthquake activity has been reported nearby.
Minimum magnitude displayed is 2.5.

Coastal Water Temperatures

Place Temperature
No Stations Reporting

Nearby Weather Stations